createdAt,value
2019-05-23T00:00:49.793Z,11.17
2019-05-23T00:03:59.441Z,8.20
2019-05-23T00:07:07.252Z,8.50
2019-05-23T00:10:13.342Z,10.67
2019-05-23T00:13:35.734Z,10.43
2019-05-23T00:16:40.502Z,9.37
2019-05-23T00:19:44.520Z,11.03
2019-05-23T00:22:48.956Z,9.20
2019-05-23T00:25:53.857Z,10.73
2019-05-23T00:29:09.636Z,10.67
2019-05-23T00:32:25.616Z,13.73
2019-05-23T00:35:31.360Z,12.73
2019-05-23T00:38:35.603Z,16.43
2019-05-23T00:41:40.509Z,16.80
2019-05-23T00:44:44.657Z,18.60
2019-05-23T00:47:49.174Z,15.90
2019-05-23T00:50:54.310Z,17.20
2019-05-23T00:53:58.132Z,20.50
2019-05-23T00:57:02.335Z,18.63
2019-05-23T01:00:06.991Z,19.87
2019-05-23T01:03:11.338Z,22.50
2019-05-23T01:06:15.865Z,24.10
2019-05-23T01:09:20.537Z,17.67
2019-05-23T01:12:25.146Z,21.93
2019-05-23T01:15:29.564Z,22.37
2019-05-23T01:18:33.576Z,21.87
2019-05-23T01:21:48.890Z,19.83
2019-05-23T01:24:55.602Z,19.47
2019-05-23T01:27:59.622Z,19.70
2019-05-23T01:31:06.759Z,21.93
2019-05-23T01:34:14.052Z,20.03
2019-05-23T01:37:18.835Z,19.17
2019-05-23T01:40:23.414Z,20.17
2019-05-23T01:43:27.729Z,21.30
2019-05-23T01:46:31.556Z,19.00
2019-05-23T01:49:37.165Z,18.30
2019-05-23T01:52:42.276Z,19.40
2019-05-23T01:55:46.812Z,21.20
2019-05-23T01:58:51.193Z,22.87
2019-05-23T02:01:55.571Z,20.60
2019-05-23T02:04:59.933Z,21.97
2019-05-23T02:08:05.075Z,21.30
2019-05-23T02:11:10.527Z,17.77
2019-05-23T02:14:14.594Z,20.80
2019-05-23T02:17:19.656Z,19.03
2019-05-23T02:20:24.734Z,19.50
2019-05-23T02:23:29.079Z,19.37
2019-05-23T02:26:33.719Z,20.43
2019-05-23T02:29:37.653Z,20.43
2019-05-23T02:32:41.912Z,20.40
2019-05-23T02:35:45.723Z,18.23
2019-05-23T02:39:08.147Z,17.73
2019-05-23T02:42:21.870Z,19.73
2019-05-23T02:45:33.576Z,22.50
2019-05-23T02:48:43.248Z,22.23
2019-05-23T02:51:47.919Z,19.73
2019-05-23T02:54:54.141Z,20.03
2019-05-23T02:58:05.227Z,21.23
2019-05-23T03:01:40.291Z,20.33
2019-05-23T03:04:44.966Z,20.23
2019-05-23T03:07:50.680Z,22.13
2019-05-23T03:11:05.153Z,20.17
2019-05-23T03:14:11.525Z,19.67
2019-05-23T03:17:18.695Z,21.93
2019-05-23T03:20:24.062Z,22.77
2019-05-23T03:23:28.636Z,19.10
2019-05-23T03:27:00.140Z,21.27
2019-05-23T03:30:06.036Z,22.03
2019-05-23T03:33:10.120Z,20.60
2019-05-23T03:36:14.010Z,24.63
2019-05-23T03:39:18.546Z,21.10
2019-05-23T03:42:23.214Z,21.23
2019-05-23T03:45:30.921Z,21.17
2019-05-23T03:48:36.139Z,22.63
2019-05-23T03:51:42.726Z,20.47
2019-05-23T03:54:49.209Z,19.43
2019-05-23T03:57:54.611Z,19.43
2019-05-23T04:01:00.246Z,20.37
2019-05-23T04:04:06.287Z,21.10
2019-05-23T04:07:10.455Z,20.37
2019-05-23T04:10:14.488Z,20.63
2019-05-23T04:13:18.707Z,20.23
2019-05-23T04:16:22.727Z,18.57
2019-05-23T04:19:26.963Z,20.20
2019-05-23T04:22:31.433Z,19.10
2019-05-23T04:25:35.743Z,19.90
2019-05-23T04:28:39.663Z,17.90
2019-05-23T04:31:43.585Z,19.67
2019-05-23T04:34:47.571Z,19.20
2019-05-23T04:37:51.560Z,17.90
2019-05-23T04:40:56.215Z,19.43
2019-05-23T04:44:00.175Z,20.53
2019-05-23T04:47:05.461Z,19.60
2019-05-23T04:50:12.141Z,20.00
2019-05-23T04:53:16.035Z,19.00
2019-05-23T04:56:19.929Z,22.50
2019-05-23T04:59:24.431Z,23.83
2019-05-23T05:02:30.222Z,20.30
2019-05-23T05:05:34.347Z,18.57
2019-05-23T05:08:38.247Z,20.17
2019-05-23T05:11:42.726Z,22.87
2019-05-23T05:14:47.085Z,18.20
2019-05-23T05:17:51.585Z,21.73
2019-05-23T05:20:55.393Z,22.30
2019-05-23T05:23:59.292Z,22.67
2019-05-23T05:27:04.471Z,24.40
2019-05-23T05:30:09.047Z,21.23
2019-05-23T05:33:12.882Z,22.17
2019-05-23T05:36:16.871Z,25.80
2019-05-23T05:39:22.338Z,23.13
2019-05-23T05:42:26.999Z,20.80
2019-05-23T05:45:31.652Z,16.73
2019-05-23T05:48:35.850Z,15.13
2019-05-23T05:51:40.095Z,14.00
2019-05-23T05:54:44.071Z,17.80
2019-05-23T05:57:47.893Z,16.47
2019-05-23T06:00:58.453Z,15.47
2019-05-23T06:04:03.207Z,12.20
2019-05-23T06:07:29.554Z,13.60
2019-05-23T06:10:33.655Z,11.33
2019-05-23T06:13:37.533Z,11.23
2019-05-23T06:16:41.846Z,15.40
2019-05-23T06:19:46.392Z,13.90
2019-05-23T06:22:52.210Z,10.67
2019-05-23T06:25:56.131Z,11.17
2019-05-23T06:28:59.946Z,10.87
2019-05-23T06:32:06.855Z,13.37
2019-05-23T06:35:10.987Z,7.80
2019-05-23T06:38:14.962Z,8.93
2019-05-23T06:41:19.377Z,6.87
2019-05-23T06:44:23.839Z,7.13
2019-05-23T06:47:27.786Z,8.30
2019-05-23T06:50:31.861Z,9.77
2019-05-23T06:53:35.659Z,6.93
2019-05-23T06:56:39.569Z,5.37
2019-05-23T06:59:43.408Z,6.67
2019-05-23T07:02:49.193Z,7.37
2019-05-23T07:05:53.357Z,6.43
2019-05-23T07:08:57.713Z,5.23
2019-05-23T07:12:01.709Z,5.27
2019-05-23T07:15:06.241Z,5.27
2019-05-23T07:18:10.268Z,5.30
2019-05-23T07:21:15.000Z,6.70
2019-05-23T07:24:19.425Z,7.03
2019-05-23T07:27:24.368Z,6.87
2019-05-23T07:30:28.353Z,6.30
2019-05-23T07:33:32.322Z,4.60
2019-05-23T07:36:36.827Z,6.00
2019-05-23T07:39:40.824Z,6.40
2019-05-23T07:42:44.987Z,3.57
2019-05-23T07:45:55.786Z,6.60
2019-05-23T07:48:59.577Z,6.03
2019-05-23T07:52:03.829Z,8.07
2019-05-23T07:55:17.146Z,4.97
2019-05-23T07:58:22.630Z,5.87
2019-05-23T08:01:28.408Z,5.83
2019-05-23T08:04:32.556Z,5.97
2019-05-23T08:07:38.397Z,5.93
2019-05-23T08:10:42.381Z,4.80
2019-05-23T08:13:46.206Z,7.53
2019-05-23T08:16:50.877Z,6.83
2019-05-23T08:19:55.139Z,7.77
2019-05-23T08:22:59.141Z,6.40
2019-05-23T08:26:03.199Z,4.83
2019-05-23T08:29:25.910Z,8.67
2019-05-23T08:32:12.656Z,6.30
2019-05-23T08:35:18.211Z,7.17
2019-05-23T08:38:23.222Z,9.70
2019-05-23T08:41:27.730Z,5.43
2019-05-23T08:44:31.991Z,8.33
2019-05-23T08:47:36.141Z,4.63
2019-05-23T08:50:39.973Z,6.50
2019-05-23T08:53:43.868Z,5.83
2019-05-23T08:56:47.744Z,5.63
2019-05-23T08:59:51.602Z,6.07
2019-05-23T09:02:58.802Z,4.43
2019-05-23T09:06:03.353Z,5.93
2019-05-23T09:09:28.379Z,4.90
2019-05-23T09:12:15.607Z,5.87
2019-05-23T09:15:19.810Z,5.23
2019-05-23T09:18:24.328Z,4.27
2019-05-23T09:21:28.380Z,6.67
2019-05-23T09:24:32.266Z,6.97
2019-05-23T09:27:36.469Z,4.40
2019-05-23T09:30:40.432Z,8.67
2019-05-23T09:33:44.346Z,4.57
2019-05-23T09:36:48.486Z,4.97
2019-05-23T09:39:52.401Z,4.70
2019-05-23T09:42:56.330Z,5.47
2019-05-23T09:46:00.191Z,4.77
2019-05-23T09:49:04.164Z,3.60
2019-05-23T09:52:09.820Z,4.93
2019-05-23T09:55:14.142Z,5.13
2019-05-23T09:58:18.157Z,5.53
2019-05-23T10:01:22.552Z,5.63
2019-05-23T10:04:26.450Z,4.53
2019-05-23T10:07:30.550Z,4.50
2019-05-23T10:10:34.570Z,10.07
2019-05-23T10:13:39.678Z,4.70
2019-05-23T10:16:43.659Z,6.40
2019-05-23T10:19:47.634Z,10.80
2019-05-23T10:22:51.586Z,3.47
2019-05-23T10:25:55.720Z,4.10
2019-05-23T10:28:59.770Z,3.77
2019-05-23T10:32:05.514Z,5.57
2019-05-23T10:35:10.365Z,5.53
2019-05-23T10:38:14.374Z,5.63
2019-05-23T10:41:18.394Z,6.30
2019-05-23T10:44:22.282Z,5.00
2019-05-23T10:47:26.347Z,4.50
2019-05-23T10:50:43.627Z,4.83
2019-05-23T10:53:36.221Z,5.83
2019-05-23T10:56:40.219Z,4.40
2019-05-23T10:59:44.053Z,5.63
2019-05-23T11:02:48.217Z,6.07
2019-05-23T11:05:52.234Z,7.30
2019-05-23T11:08:56.328Z,6.70
2019-05-23T11:12:00.417Z,7.43
2019-05-23T11:15:04.651Z,5.97
2019-05-23T11:18:10.208Z,11.20
2019-05-23T11:21:14.101Z,6.93
2019-05-23T11:24:18.275Z,8.43
2019-05-23T11:27:22.812Z,7.13
2019-05-23T11:30:42.003Z,8.67
2019-05-23T11:33:45.908Z,12.13
2019-05-23T11:36:49.840Z,9.07
2019-05-23T11:39:54.041Z,10.87
2019-05-23T11:42:57.966Z,6.77
2019-05-23T11:46:21.309Z,11.17
2019-05-23T11:49:25.379Z,10.40
2019-05-23T11:52:30.234Z,10.63
2019-05-23T11:55:34.361Z,8.40
2019-05-23T11:58:38.163Z,9.70
2019-05-23T12:01:50.905Z,7.53
2019-05-23T12:04:56.114Z,7.57
2019-05-23T12:08:00.008Z,7.67
2019-05-23T12:11:04.089Z,7.60
2019-05-23T12:14:08.043Z,9.63
2019-05-23T12:17:12.736Z,10.30
2019-05-23T12:20:17.002Z,5.93
2019-05-23T12:23:20.835Z,5.83
2019-05-23T12:26:24.790Z,8.50
2019-05-23T12:29:28.771Z,11.00
2019-05-23T12:32:32.772Z,9.20
2019-05-23T12:35:36.584Z,7.77
2019-05-23T12:38:40.492Z,8.00
2019-05-23T12:41:44.588Z,11.80
2019-05-23T12:44:48.546Z,9.17
2019-05-23T12:48:09.027Z,12.33
2019-05-23T12:51:13.024Z,12.63
2019-05-23T12:54:17.012Z,15.57
2019-05-23T12:57:20.994Z,15.17
2019-05-23T13:00:42.664Z,17.63
2019-05-23T13:03:46.983Z,12.83
2019-05-23T13:06:50.874Z,11.63
2019-05-23T13:09:54.763Z,18.03
2019-05-23T13:12:58.748Z,14.97
2019-05-23T13:16:02.635Z,15.83
2019-05-23T13:19:06.561Z,18.17
2019-05-23T13:22:11.116Z,15.20
2019-05-23T13:25:15.388Z,16.20
2019-05-23T13:28:19.644Z,14.93
2019-05-23T13:31:23.640Z,21.03
2019-05-23T13:34:27.449Z,15.87
2019-05-23T13:37:31.468Z,14.13
2019-05-23T13:40:35.412Z,17.40
2019-05-23T13:43:39.625Z,17.47
2019-05-23T13:46:44.193Z,17.30
2019-05-23T13:49:48.183Z,14.07
2019-05-23T13:52:52.150Z,13.30
2019-05-23T13:55:56.336Z,16.77
2019-05-23T13:59:00.432Z,16.53
2019-05-23T14:02:06.123Z,11.57
2019-05-23T14:05:10.261Z,13.73
2019-05-23T14:08:18.488Z,16.77
2019-05-23T14:11:20.449Z,16.40
2019-05-23T14:14:25.077Z,14.53
2019-05-23T14:17:36.233Z,17.43
2019-05-23T14:20:40.203Z,12.10
2019-05-23T14:23:44.105Z,13.87
2019-05-23T14:26:54.898Z,14.90
2019-05-23T14:30:08.181Z,12.33
2019-05-23T14:33:06.381Z,12.00
2019-05-23T14:36:38.362Z,13.43
2019-05-23T14:39:45.966Z,13.67
2019-05-23T14:43:15.420Z,13.47
2019-05-23T14:46:20.044Z,16.67
2019-05-23T14:49:30.193Z,12.13
2019-05-23T14:52:38.113Z,14.53
2019-05-23T14:55:42.078Z,14.17
2019-05-23T14:58:46.088Z,16.33
2019-05-23T15:01:50.545Z,17.53
2019-05-23T15:04:54.363Z,17.37
2019-05-23T15:07:58.255Z,14.43
2019-05-23T15:11:02.325Z,17.57
2019-05-23T15:14:06.341Z,16.13
2019-05-23T15:17:10.231Z,15.40
2019-05-23T15:20:14.789Z,30.40
2019-05-23T15:23:18.724Z,14.00
2019-05-23T15:26:23.976Z,19.73
2019-05-23T15:29:29.402Z,17.90
2019-05-23T15:32:33.662Z,19.67
2019-05-23T15:35:37.559Z,17.90
2019-05-23T15:38:41.836Z,19.37
2019-05-23T15:41:45.850Z,16.70
2019-05-23T15:44:50.057Z,17.10
2019-05-23T15:47:55.090Z,16.90
2019-05-23T15:50:59.183Z,19.87
2019-05-23T15:54:14.892Z,25.40
2019-05-23T15:57:22.935Z,22.57
2019-05-23T16:01:01.434Z,24.23
2019-05-23T16:04:11.584Z,22.47
2019-05-23T16:07:16.027Z,25.97
2019-05-23T16:10:22.778Z,29.53
2019-05-23T16:13:26.763Z,22.63
2019-05-23T16:16:39.118Z,19.93
2019-05-23T16:19:43.789Z,23.97
2019-05-23T16:22:47.748Z,22.00
2019-05-23T16:25:51.614Z,19.33
2019-05-23T16:28:55.624Z,19.97
2019-05-23T16:32:02.788Z,19.37
2019-05-23T16:35:06.870Z,19.53
2019-05-23T16:38:10.971Z,16.80
2019-05-23T16:41:14.974Z,19.43
2019-05-23T16:44:18.922Z,14.67
2019-05-23T16:47:22.905Z,17.20
2019-05-23T16:50:26.687Z,17.43
2019-05-23T16:53:35.510Z,15.23
2019-05-23T16:56:54.149Z,14.80
2019-05-23T17:00:15.987Z,16.13
2019-05-23T17:03:38.826Z,16.80
2019-05-23T17:06:50.137Z,16.73
2019-05-23T17:10:08.659Z,15.57
2019-05-23T17:13:17.953Z,14.37
2019-05-23T17:16:40.848Z,16.63
2019-05-23T17:20:18.509Z,11.47
2019-05-23T17:23:27.687Z,13.93
2019-05-23T17:26:53.366Z,11.77
2019-05-23T17:30:02.216Z,14.47
2019-05-23T17:33:07.681Z,11.83
2019-05-23T17:36:11.554Z,12.03
2019-05-23T17:39:16.757Z,11.87
2019-05-23T17:42:20.561Z,12.90
2019-05-23T17:45:24.650Z,15.70
2019-05-23T17:48:28.571Z,12.23
2019-05-23T17:51:32.475Z,15.43
2019-05-23T17:54:36.353Z,11.50
2019-05-23T17:57:40.347Z,10.13
2019-05-23T18:00:45.655Z,12.70
2019-05-23T18:03:49.559Z,10.67
2019-05-23T18:06:53.746Z,12.20
2019-05-23T18:09:57.654Z,9.57
2019-05-23T18:13:01.713Z,10.60
2019-05-23T18:16:06.660Z,15.80
2019-05-23T18:19:10.815Z,12.20
2019-05-23T18:22:14.966Z,13.30
2019-05-23T18:25:19.340Z,11.53
2019-05-23T18:28:24.053Z,15.00
2019-05-23T18:31:29.609Z,14.87
2019-05-23T18:34:33.601Z,12.63
2019-05-23T18:37:37.431Z,10.70
2019-05-23T18:40:41.398Z,11.77
2019-05-23T18:43:46.655Z,13.17
2019-05-23T18:46:52.823Z,12.43
2019-05-23T18:49:56.805Z,10.93
2019-05-23T18:53:00.800Z,12.17
2019-05-23T18:56:05.023Z,11.07
2019-05-23T18:59:09.972Z,15.47
2019-05-23T19:02:13.852Z,13.33
2019-05-23T19:05:18.179Z,12.57
2019-05-23T19:08:22.716Z,15.30
2019-05-23T19:11:26.808Z,16.73
2019-05-23T19:14:30.746Z,14.37
2019-05-23T19:17:34.650Z,12.97
2019-05-23T19:20:38.987Z,13.07
2019-05-23T19:23:43.136Z,14.70
2019-05-23T19:26:48.411Z,14.10
2019-05-23T19:29:52.403Z,15.13
2019-05-23T19:32:56.939Z,15.47
2019-05-23T19:36:00.864Z,13.87
2019-05-23T19:39:06.711Z,14.20
2019-05-23T19:42:11.076Z,16.20
2019-05-23T19:45:15.041Z,17.70
2019-05-23T19:48:20.099Z,17.57
2019-05-23T19:51:23.908Z,15.60
2019-05-23T19:54:27.911Z,21.00
2019-05-23T19:57:32.143Z,20.07
2019-05-23T20:00:36.778Z,20.07
2019-05-23T20:03:41.049Z,26.80
2019-05-23T20:06:45.832Z,19.43
2019-05-23T20:09:50.213Z,18.50
2019-05-23T20:12:54.126Z,20.63
2019-05-23T20:15:57.934Z,22.00
2019-05-23T20:19:01.829Z,23.77
2019-05-23T20:22:05.838Z,22.60
2019-05-23T20:25:10.899Z,17.60
2019-05-23T20:28:14.803Z,22.73
2019-05-23T20:31:18.889Z,26.00
2019-05-23T20:34:22.953Z,19.40
2019-05-23T20:37:29.984Z,23.57
2019-05-23T20:40:33.928Z,20.23
2019-05-23T20:43:37.998Z,21.10
2019-05-23T20:46:42.289Z,20.80
2019-05-23T20:49:46.200Z,20.37
2019-05-23T20:52:50.020Z,18.83
2019-05-23T20:55:53.868Z,23.93
2019-05-23T20:58:57.757Z,21.67
2019-05-23T21:02:01.913Z,21.30
2019-05-23T21:05:05.917Z,21.33
2019-05-23T21:08:09.810Z,23.40
2019-05-23T21:11:13.695Z,23.30
2019-05-23T21:14:17.652Z,22.17
2019-05-23T21:17:21.727Z,23.30
2019-05-23T21:20:25.620Z,24.37
2019-05-23T21:23:29.507Z,24.57
2019-05-23T21:26:33.419Z,21.33
2019-05-23T21:29:37.319Z,24.63
2019-05-23T21:32:41.199Z,28.83
2019-05-23T21:35:45.098Z,24.87
2019-05-23T21:38:49.147Z,25.80
2019-05-23T21:41:53.004Z,29.83
2019-05-23T21:44:56.911Z,30.57
2019-05-23T21:48:00.886Z,31.27
2019-05-23T21:51:05.207Z,27.87
2019-05-23T21:54:09.241Z,27.40
2019-05-23T21:57:16.213Z,25.43
2019-05-23T22:00:32.181Z,30.87
2019-05-23T22:03:38.227Z,29.53
2019-05-23T22:06:44.775Z,28.80
2019-05-23T22:09:50.368Z,31.07
2019-05-23T22:13:03.920Z,30.90
2019-05-23T22:16:00.810Z,27.97
2019-05-23T22:19:09.858Z,29.73
2019-05-23T22:22:16.913Z,27.20
2019-05-23T22:25:32.620Z,35.87
2019-05-23T22:28:37.228Z,34.63
2019-05-23T22:31:44.193Z,29.67
2019-05-23T22:35:10.238Z,29.40
2019-05-23T22:38:14.994Z,27.33
2019-05-23T22:41:19.615Z,29.47
2019-05-23T22:44:23.872Z,33.43
2019-05-23T22:47:29.417Z,38.37
2019-05-23T22:50:33.260Z,32.67
2019-05-23T22:53:37.195Z,35.00
2019-05-23T22:56:41.589Z,35.37
2019-05-23T22:59:48.036Z,33.70
2019-05-23T23:02:52.243Z,38.43
2019-05-23T23:05:56.119Z,38.40
2019-05-23T23:09:00.082Z,35.80
2019-05-23T23:12:03.973Z,40.17
2019-05-23T23:15:08.144Z,40.00
2019-05-23T23:18:11.979Z,36.80
2019-05-23T23:21:15.881Z,34.20
2019-05-23T23:24:19.786Z,36.33
2019-05-23T23:27:23.679Z,35.23
2019-05-23T23:30:30.706Z,39.10
2019-05-23T23:33:34.673Z,36.60
2019-05-23T23:36:38.498Z,35.67
2019-05-23T23:39:42.504Z,36.63
2019-05-23T23:42:46.320Z,31.80
2019-05-23T23:46:07.998Z,33.37
2019-05-23T23:49:29.669Z,34.20
2019-05-23T23:52:51.322Z,31.40
2019-05-23T23:56:13.002Z,33.30
2019-05-23T23:59:15.955Z,34.47
